Time;durP1;ratioP1;P1;durP2;ratioP2;P2;SDS_P1;SDS_P2;PMS_P1;PMS_P2;Temp;Humidity;BMP_temperature;BMP_pressure;BME280_temperature;BME280_humidity;BME280_pressure;Samples;Min_cycle;Max_cycle;Signal;HPM_P1;HPM_P2
2023/02/14 00:00:45;;;;;;;0.20;0.20;;;;;;;9.10;81.37;103040.03;4949669;28;20075;-50
2023/02/14 00:03:12;;;;;;;0.30;0.30;;;;;;;8.93;82.05;103033.50;4947183;28;20122;-49
2023/02/14 00:05:38;;;;;;;0.38;0.38;;;;;;;8.97;81.53;103029.16;4950430;28;20039;-51
2023/02/14 00:08:03;;;;;;;0.50;0.50;;;;;;;8.97;81.79;103019.22;4944096;28;20573;-52
2023/02/14 00:10:29;;;;;;;0.40;0.40;;;;;;;8.97;82.01;103029.97;4949717;28;20031;-53
2023/02/14 00:12:54;;;;;;;0.47;0.47;;;;;;;9.02;82.22;103029.09;4950655;28;20051;-47
2023/02/14 00:15:23;;;;;;;0.68;0.68;;;;;;;9.03;82.30;103034.22;4949416;28;20026;-49
2023/02/14 00:17:55;;;;;;;1.63;1.52;;;;;;;9.05;82.06;103037.41;4941875;28;20042;-52
2023/02/14 00:20:23;;;;;;;;;;;;;;;9.02;81.83;103029.09;4942617;28;20394;-49
2023/02/14 00:22:49;;;;;;;0.13;0.13;;;;;;;8.96;81.34;103039.09;4948508;28;19918;-52
2023/02/14 00:25:15;;;;;;;0.32;0.32;;;;;;;8.80;81.46;103034.19;4947051;28;20501;-49
2023/02/14 00:27:40;;;;;;;0.43;0.43;;;;;;;8.91;81.12;103036.50;4933646;29;20121;-47
2023/02/14 00:30:11;;;;;;;1.55;0.73;;;;;;;8.88;81.36;103042.41;4946245;28;20126;-50
2023/02/14 00:32:38;;;;;;;2.85;1.15;;;;;;;8.89;81.16;103037.84;4945229;29;20027;-51
2023/02/14 00:35:05;;;;;;;0.10;0.10;;;;;;;8.91;81.17;103036.50;4933449;29;20027;-46
2023/02/14 00:37:31;;;;;;;0.20;0.20;;;;;;;8.91;81.18;103033.00;4937605;28;20046;-50
2023/02/14 00:39:56;;;;;;;1.73;0.95;;;;;;;8.91;81.61;103024.94;4948657;28;20486;-51
2023/02/14 00:42:22;;;;;;;0.35;0.35;;;;;;;8.93;81.18;103039.69;4953954;28;22050;-46
2023/02/14 00:44:47;;;;;;;0.28;0.28;;;;;;;8.93;81.44;103034.31;4954042;29;20082;-47
2023/02/14 00:47:13;;;;;;;0.88;0.88;;;;;;;8.91;81.51;103025.75;4935409;29;20044;-50
2023/02/14 00:49:38;;;;;;;0.55;0.55;;;;;;;8.94;81.37;103033.22;4953773;29;20053;-51
2023/02/14 00:52:04;;;;;;;0.30;0.30;;;;;;;8.97;81.35;103031.84;4952932;28;20125;-49
2023/02/14 00:54:29;;;;;;;1.20;1.20;;;;;;;8.94;81.50;103024.38;4951119;28;20082;-46
2023/02/14 00:56:57;;;;;;;0.80;0.80;;;;;;;8.96;81.68;103023.00;4948779;28;20030;-49
2023/02/14 00:59:22;;;;;;;1.15;1.05;;;;;;;8.94;81.57;103027.84;4953022;29;20027;-47
2023/02/14 01:01:49;;;;;;;0.20;0.20;;;;;;;8.99;81.45;103024.31;4947917;28;20031;-48
2023/02/14 01:04:14;;;;;;;0.20;0.20;;;;;;;8.93;81.36;103018.19;4935916;29;20039;-49
2023/02/14 01:06:40;;;;;;;0.10;0.10;;;;;;;8.96;81.59;103023.00;4949017;28;20042;-48
2023/02/14 01:09:05;;;;;;;0.95;0.75;;;;;;;8.92;81.71;103016.56;4952897;29;20042;-53
2023/02/14 01:11:31;;;;;;;1.85;0.75;;;;;;;8.87;81.66;103013.97;4950610;28;20157;-48
2023/02/14 01:13:57;;;;;;;0.47;0.47;;;;;;;8.79;81.87;103021.81;4953907;28;20027;-52
2023/02/14 01:16:25;;;;;;;0.20;0.20;;;;;;;8.72;82.07;103011.44;4935011;28;20085;-47
2023/02/14 01:18:53;;;;;;;0.50;0.50;;;;;;;8.73;82.15;103006.88;4936154;29;20031;-48
2023/02/14 01:21:23;;;;;;;0.47;0.47;;;;;;;8.79;82.15;103019.13;4954275;29;20042;-48
2023/02/14 01:23:53;;;;;;;0.50;0.50;;;;;;;8.79;82.21;103016.44;4931399;29;20039;-47
2023/02/14 01:26:20;;;;;;;0.30;0.30;;;;;;;8.76;82.57;103012.47;4951568;29;20027;-51
2023/02/14 01:28:46;;;;;;;0.22;0.22;;;;;;;8.83;82.11;103007.53;4953362;28;20410;-47
2023/02/14 01:31:12;;;;;;;0.60;0.60;;;;;;;8.76;82.10;103004.41;4935434;29;20035;-50
2023/02/14 01:33:39;;;;;;;0.35;0.35;;;;;;;8.72;82.45;103005.25;4949398;28;20106;-46
2023/02/14 01:36:05;;;;;;;0.90;0.90;;;;;;;8.75;81.70;103007.38;4952953;28;20035;-49
2023/02/14 01:38:31;;;;;;;0.45;0.45;;;;;;;8.80;81.70;103000.06;4952359;29;20033;-51
2023/02/14 01:40:57;;;;;;;0.40;0.40;;;;;;;8.79;81.86;102994.97;4950269;28;20410;-50
2023/02/14 01:43:23;;;;;;;0.28;0.28;;;;;;;8.78;82.27;102996.88;4951505;28;20035;-51
2023/02/14 01:45:49;;;;;;;0.50;0.50;;;;;;;8.77;81.68;103003.31;4946138;28;20195;-49
2023/02/14 01:48:16;;;;;;;0.45;0.45;;;;;;;8.77;81.96;102997.94;4933761;29;20058;-51
2023/02/14 01:50:43;;;;;;;0.20;0.20;;;;;;;8.74;81.76;102995.84;4951895;28;20350;-52
2023/02/14 01:53:26;;;;;;;0.73;0.73;;;;;;;8.77;82.27;102986.38;4948513;28;20364;-52
2023/02/14 01:55:59;;;;;;;0.20;0.20;;;;;;;8.80;82.04;102994.69;4950945;28;20043;-48
2023/02/14 01:58:28;;;;;;;0.35;0.35;;;;;;;8.79;82.10;102994.97;4951069;28;20106;-47
2023/02/14 02:00:57;;;;;;;0.68;0.68;;;;;;;8.75;82.04;102988.59;4944276;28;20095;-51
2023/02/14 02:03:37;;;;;;;0.88;0.88;;;;;;;8.74;82.30;102993.16;4951819;28;20111;-53
2023/02/14 02:06:09;;;;;;;0.90;0.90;;;;;;;8.74;82.57;102990.47;4942652;28;20178;-52
2023/02/14 02:08:40;;;;;;;0.10;0.10;;;;;;;8.74;82.26;102978.91;4947665;28;20028;-48
2023/02/14 02:11:06;;;;;;;0.22;0.22;;;;;;;8.73;82.50;102971.94;4936892;29;20122;-48
2023/02/14 02:13:32;;;;;;;0.30;0.30;;;;;;;8.73;82.59;102975.41;4951306;28;20174;-50
2023/02/14 02:16:03;;;;;;;0.73;0.73;;;;;;;8.68;83.19;102971.97;4950302;28;20043;-52
2023/02/14 02:18:43;;;;;;;;;;;;;;;8.73;82.82;102974.63;4941771;28;20054;-51
2023/02/14 02:21:33;;;;;;;0.30;0.30;;;;;;;8.74;83.11;102970.84;4952396;28;19914;-48
2023/02/14 02:24:08;;;;;;;0.43;0.43;;;;;;;8.69;83.41;102977.06;4938994;28;20043;-51
2023/02/14 02:26:47;;;;;;;0.30;0.30;;;;;;;8.68;83.37;102970.09;4949371;29;20047;-50
2023/02/14 02:29:40;;;;;;;1.10;1.10;;;;;;;8.54;83.85;102971.84;4952779;28;20554;-49
2023/02/14 02:32:30;;;;;;;0.85;0.63;;;;;;;8.49;84.30;102966.53;4943132;28;20038;-51
2023/02/14 02:35:26;;;;;;;0.40;0.40;;;;;;;8.48;84.29;102964.91;4950025;28;20507;-47
2023/02/14 02:37:57;;;;;;;0.80;0.50;;;;;;;8.59;83.97;102962.94;4951864;29;20027;-53
2023/02/14 02:40:58;;;;;;;0.17;0.17;;;;;;;8.50;83.63;102960.06;4952217;28;20046;-46
2023/02/14 02:43:35;;;;;;;0.77;0.77;;;;;;;8.53;83.42;102959.53;4913159;29;20059;-46
2023/02/14 02:46:48;;;;;;;0.40;0.40;;;;;;;8.48;82.99;102961.47;4951075;28;20430;-48
2023/02/14 02:53:02;;;;;;;0.40;0.40;;;;;;;8.19;83.58;102966.75;4941272;28;20042;-50
2023/02/14 02:58:43;;;;;;;0.40;0.40;;;;;;;8.46;83.50;102960.94;4943011;28;20045;-47
2023/02/14 03:01:16;;;;;;;0.75;0.75;;;;;;;8.47;82.98;102968.69;4951890;28;20394;-45
2023/02/14 03:06:31;;;;;;;0.57;0.57;;;;;;;8.47;83.07;102963.34;4945766;28;20040;-48
2023/02/14 03:09:17;;;;;;;0.20;0.20;;;;;;;8.48;83.28;102951.50;4935288;28;20683;-45
2023/02/14 03:12:01;;;;;;;0.20;0.20;;;;;;;8.53;82.77;102947.97;4934974;29;20441;-47
2023/02/14 03:14:45;;;;;;;0.75;0.73;;;;;;;8.54;82.85;102952.25;4933595;29;20063;-49
2023/02/14 03:17:26;;;;;;;0.32;0.32;;;;;;;8.47;82.86;102960.66;4945633;28;20513;-47
2023/02/14 03:20:16;;;;;;;0.63;0.63;;;;;;;8.48;83.12;102956.88;4940411;28;20047;-49
2023/02/14 03:22:48;;;;;;;0.30;0.30;;;;;;;8.42;83.54;102952.63;4945612;28;20046;-50
2023/02/14 03:25:23;;;;;;;0.60;0.60;;;;;;;8.41;83.60;102951.03;4928685;28;20114;-45
2023/02/14 03:28:13;;;;;;;0.45;0.45;;;;;;;8.31;83.84;102950.31;4949543;28;20391;-52
2023/02/14 03:30:56;;;;;;;0.30;0.30;;;;;;;8.37;83.66;102950.00;4914159;29;20054;-50
2023/02/14 03:33:31;;;;;;;0.30;0.30;;;;;;;8.36;83.58;102953.78;4942629;28;20046;-45
2023/02/14 03:36:05;;;;;;;0.85;0.85;;;;;;;8.40;83.58;102954.78;4951199;29;20035;-45
2023/02/14 03:38:51;;;;;;;0.17;0.17;;;;;;;8.47;83.39;102952.59;4942726;29;20086;-45
2023/02/14 03:41:22;;;;;;;0.20;0.20;;;;;;;8.44;83.13;102949.69;4944691;28;20114;-45
2023/02/14 03:43:55;;;;;;;0.30;0.30;;;;;;;8.37;83.67;102959.94;4951338;28;20118;-45
2023/02/14 03:46:28;;;;;;;1.17;1.10;;;;;;;8.08;84.21;102949.16;4943006;28;20043;-47
2023/02/14 03:48:57;;;;;;;0.85;0.85;;;;;;;8.14;84.44;102940.78;4948254;29;20035;-47
2023/02/14 03:51:24;;;;;;;0.32;0.32;;;;;;;8.21;84.59;102935.88;4951027;28;20041;-46
2023/02/14 03:53:55;;;;;;;0.63;0.63;;;;;;;8.31;83.75;102935.03;4951818;28;20513;-45
2023/02/14 03:56:39;;;;;;;;;;;;;;;8.27;83.94;102933.19;4935231;29;20038;-50
2023/02/14 03:59:12;;;;;;;0.20;0.20;;;;;;;8.13;84.61;102930.31;4944532;29;19937;-48
2023/02/14 04:01:49;;;;;;;0.30;0.30;;;;;;;8.05;84.94;102921.00;4948295;28;20047;-45
2023/02/14 04:04:19;;;;;;;0.10;0.10;;;;;;;8.21;84.94;102919.78;4950336;29;20058;-45
2023/02/14 04:06:45;;;;;;;0.20;0.20;;;;;;;8.21;84.81;102917.09;4949033;28;20084;-49
2023/02/14 04:09:10;;;;;;;0.25;0.25;;;;;;;8.29;84.87;102928.31;4946480;29;20051;-47
2023/02/14 04:11:37;;;;;;;0.47;0.47;;;;;;;8.09;85.24;102929.31;4950326;28;20031;-45
2023/02/14 04:14:03;;;;;;;0.20;0.20;;;;;;;8.10;85.49;102925.53;4931358;29;20767;-51
2023/02/14 04:16:30;;;;;;;0.50;0.50;;;;;;;8.15;84.99;102920.09;4942792;28;20390;-46
2023/02/14 04:21:39;;;;;;;0.20;0.20;;;;;;;8.18;84.75;102914.19;4935967;29;20122;-46
2023/02/14 04:24:05;;;;;;;0.40;0.40;;;;;;;8.18;85.36;102911.50;4948040;28;20166;-53
2023/02/14 04:26:30;;;;;;;0.30;0.30;;;;;;;8.21;84.85;102921.66;4948270;29;20039;-45
2023/02/14 04:28:56;;;;;;;0.50;0.50;;;;;;;8.23;85.03;102919.50;4949895;28;20043;-45
2023/02/14 04:31:21;;;;;;;0.57;0.57;;;;;;;8.23;85.00;102916.03;4947730;29;20031;-54
2023/02/14 04:33:47;;;;;;;0.30;0.30;;;;;;;8.22;85.36;102909.84;4950481;28;20498;-50
2023/02/14 04:36:13;;;;;;;0.88;0.70;;;;;;;8.21;85.19;102911.72;4939776;28;20046;-49
2023/02/14 04:38:38;;;;;;;0.55;0.55;;;;;;;8.24;85.27;102899.63;4939936;29;20056;-50
2023/02/14 04:41:04;;;;;;;0.43;0.43;;;;;;;8.27;85.01;102906.34;4947997;29;20039;-51
2023/02/14 04:43:30;;;;;;;0.20;0.20;;;;;;;8.16;85.26;102908.28;4950097;28;20046;-46
2023/02/14 04:45:55;;;;;;;0.43;0.43;;;;;;;8.17;85.44;102913.38;4940209;29;20043;-48
2023/02/14 04:48:21;;;;;;;0.52;0.52;;;;;;;8.21;85.50;102910.91;4948884;28;20019;-47
2023/02/14 04:50:53;;;;;;;0.30;0.30;;;;;;;8.18;85.32;102906.13;4950957;28;20032;-47
2023/02/14 04:53:19;;;;;;;0.35;0.35;;;;;;;8.16;84.89;102900.25;4942610;28;21547;-44
2023/02/14 04:55:48;;;;;;;0.55;0.55;;;;;;;8.16;85.10;102908.28;4940803;28;20037;-45
2023/02/14 04:58:13;;;;;;;1.60;1.50;;;;;;;8.15;85.29;102909.38;4951309;28;20035;-45
2023/02/14 05:00:38;;;;;;;0.82;0.82;;;;;;;8.13;85.43;102901.59;4945577;29;20398;-45
2023/02/14 05:03:04;;;;;;;1.65;0.68;;;;;;;8.14;85.48;102899.72;4937522;28;20449;-45
2023/02/14 05:05:29;;;;;;;0.25;0.25;;;;;;;8.15;85.67;102907.50;4943249;28;20767;-46
2023/02/14 05:07:55;;;;;;;0.40;0.40;;;;;;;8.17;85.67;102908.00;4942623;28;20102;-51
2023/02/14 05:10:20;;;;;;;0.28;0.28;;;;;;;8.19;85.78;102910.41;4949103;28;20031;-46
2023/02/14 05:12:46;;;;;;;0.38;0.38;;;;;;;8.23;85.63;102903.38;4951514;28;20743;-47
2023/02/14 05:15:11;;;;;;;0.30;0.30;;;;;;;8.15;85.74;102909.38;4942653;28;20054;-51
2023/02/14 05:17:37;;;;;;;0.75;0.75;;;;;;;8.16;86.01;102908.28;4946783;29;20066;-48
2023/02/14 05:20:04;;;;;;;0.68;0.68;;;;;;;8.14;85.94;102900.53;4960011;28;20098;-45
2023/02/14 05:22:30;;;;;;;0.82;0.82;;;;;;;8.09;85.96;102899.78;4955630;28;20130;-45
2023/02/14 05:24:55;;;;;;;0.40;0.40;;;;;;;8.08;85.93;102906.22;4945047;28;20122;-47
2023/02/14 05:27:21;;;;;;;1.65;0.88;;;;;;;8.13;86.13;102900.78;4953787;28;20027;-45
2023/02/14 05:29:46;;;;;;;0.57;0.57;;;;;;;7.99;86.37;102903.31;4943823;28;20039;-50
2023/02/14 05:32:12;;;;;;;0.77;0.77;;;;;;;8.06;86.23;102905.69;4940717;28;20035;-47
2023/02/14 05:34:37;;;;;;;6.40;0.45;;;;;;;8.07;86.24;102900.03;4934430;28;20023;-49
2023/02/14 05:37:03;;;;;;;0.40;0.40;;;;;;;8.04;86.79;102903.31;4952450;29;20062;-46
2023/02/14 05:39:28;;;;;;;0.35;0.35;;;;;;;8.07;86.46;102902.72;4947259;28;20042;-48
2023/02/14 05:41:55;;;;;;;0.40;0.40;;;;;;;8.11;86.56;102892.22;4952667;28;20037;-52
2023/02/14 05:44:21;;;;;;;0.60;0.60;;;;;;;8.12;86.38;102900.00;4952466;28;20071;-49
2023/02/14 05:46:46;;;;;;;0.88;0.88;;;;;;;8.18;86.26;102898.88;4948381;29;20031;-51
2023/02/14 05:49:12;;;;;;;0.30;0.30;;;;;;;8.18;86.04;102890.84;4949911;28;20085;-50
2023/02/14 05:51:37;;;;;;;0.30;0.30;;;;;;;8.17;85.79;102893.78;4929866;29;20035;-50
2023/02/14 05:54:03;;;;;;;0.60;0.60;;;;;;;8.04;86.01;102886.41;4938502;28;20027;-52
2023/02/14 05:56:28;;;;;;;0.30;0.30;;;;;;;8.04;86.63;102899.81;4940879;28;20027;-47
2023/02/14 05:58:54;;;;;;;0.30;0.30;;;;;;;7.99;86.41;102895.28;4942741;28;20305;-45
2023/02/14 06:01:19;;;;;;;0.38;0.38;;;;;;;8.04;86.44;102894.44;4947692;28;20031;-45
2023/02/14 06:03:45;;;;;;;0.68;0.47;;;;;;;8.08;86.38;102887.44;4945234;28;20031;-53
2023/02/14 06:06:10;;;;;;;0.40;0.40;;;;;;;8.05;86.16;102888.78;4940773;28;20039;-48
2023/02/14 06:08:36;;;;;;;2.72;0.95;;;;;;;8.05;86.38;102894.16;4948123;28;20070;-46
2023/02/14 06:11:01;;;;;;;0.73;0.73;;;;;;;8.05;86.51;102893.38;4948276;28;20026;-48
2023/02/14 06:13:26;;;;;;;0.38;0.38;;;;;;;8.02;86.55;102888.56;4943551;28;20050;-43
2023/02/14 06:15:52;;;;;;;1.50;1.45;;;;;;;8.06;86.27;102889.59;4942898;28;20027;-50
2023/02/14 06:18:17;;;;;;;0.25;0.25;;;;;;;8.10;86.10;102885.28;4947326;29;20437;-52
2023/02/14 06:20:43;;;;;;;0.55;0.55;;;;;;;8.04;86.15;102892.56;4945708;28;20502;-45
2023/02/14 06:23:08;;;;;;;0.40;0.40;;;;;;;7.66;87.60;102895.31;4952282;28;20050;-53
2023/02/14 06:25:34;;;;;;;0.60;0.60;;;;;;;7.81;87.56;102901.34;4938337;29;20031;-47
2023/02/14 06:27:59;;;;;;;0.30;0.30;;;;;;;7.94;87.34;102905.25;4947935;28;20043;-51
2023/02/14 06:30:26;;;;;;;0.63;0.63;;;;;;;7.97;86.76;102905.53;4942148;28;20035;-51
2023/02/14 06:32:51;;;;;;;0.73;0.73;;;;;;;7.91;86.75;102903.16;4947372;28;20034;-45
2023/02/14 06:35:17;;;;;;;0.57;0.57;;;;;;;7.99;86.44;102900.66;4949204;28;20792;-49
2023/02/14 06:37:44;;;;;;;0.80;0.80;;;;;;;8.03;86.70;102907.06;4929230;28;20039;-46
2023/02/14 06:40:10;;;;;;;0.60;0.60;;;;;;;7.90;86.47;102904.22;4942758;28;20027;-45
2023/02/14 06:42:36;;;;;;;0.50;0.50;;;;;;;7.91;87.01;102903.97;4946656;28;20097;-44
2023/02/14 06:45:02;;;;;;;0.98;0.98;;;;;;;7.91;87.19;102903.16;4941671;28;20130;-50
2023/02/14 06:47:27;;;;;;;0.30;0.30;;;;;;;8.00;86.93;102912.19;4930854;28;20035;-48
2023/02/14 06:49:53;;;;;;;0.73;0.70;;;;;;;8.01;87.01;102905.75;4946188;28;20027;-49
2023/02/14 06:52:18;;;;;;;0.63;0.63;;;;;;;8.07;86.35;102907.31;4950211;28;20043;-48
2023/02/14 06:54:44;;;;;;;0.63;0.63;;;;;;;8.05;86.83;102907.56;4951511;28;20020;-45
2023/02/14 06:57:09;;;;;;;0.47;0.47;;;;;;;8.09;86.57;102915.88;4949253;28;20042;-45
2023/02/14 06:59:35;;;;;;;0.30;0.30;;;;;;;8.09;86.21;102913.19;4945735;28;20039;-51
2023/02/14 07:02:00;;;;;;;0.52;0.52;;;;;;;8.01;86.35;102909.22;4949167;28;20050;-51
2023/02/14 07:04:26;;;;;;;0.28;0.28;;;;;;;7.92;86.88;102904.75;4937345;29;20042;-45
2023/02/14 07:06:51;;;;;;;0.40;0.40;;;;;;;8.00;86.93;102906.81;4950813;28;20043;-52
2023/02/14 07:09:17;;;;;;;0.77;0.77;;;;;;;7.97;87.17;102908.22;4939431;28;20078;-45
2023/02/14 07:11:46;;;;;;;0.40;0.40;;;;;;;7.99;87.17;102907.91;4956616;28;20454;-45
2023/02/14 07:14:12;;;;;;;0.85;0.85;;;;;;;8.06;86.64;102906.50;4952522;29;20028;-49
2023/02/14 07:16:37;;;;;;;0.40;0.40;;;;;;;7.98;86.79;102901.75;4959575;28;20027;-50
2023/02/14 07:19:03;;;;;;;0.30;0.30;;;;;;;8.07;86.83;102893.91;4957949;28;20042;-48
2023/02/14 07:21:28;;;;;;;0.20;0.20;;;;;;;8.12;86.81;102901.91;4949065;28;20045;-51
2023/02/14 07:23:54;;;;;;;0.93;0.93;;;;;;;8.16;86.59;102900.25;4952189;28;20062;-46
2023/02/14 07:26:19;;;;;;;0.57;0.57;;;;;;;8.19;86.57;102897.78;4951522;28;20119;-45
2023/02/14 07:28:47;;;;;;;0.60;0.60;;;;;;;8.21;86.61;102900.19;4944803;28;20051;-45
2023/02/14 07:31:14;;;;;;;0.40;0.40;;;;;;;8.32;86.28;102906.31;4949234;28;20041;-49
2023/02/14 07:33:39;;;;;;;0.35;0.35;;;;;;;8.31;86.22;102902.81;4951790;28;20066;-45
2023/02/14 07:36:07;;;;;;;0.32;0.32;;;;;;;8.18;86.38;102901.56;4951594;29;20070;-45
2023/02/14 07:38:33;;;;;;;0.82;0.82;;;;;;;8.24;86.03;102896.97;4923381;28;20027;-51
2023/02/14 07:40:58;;;;;;;0.65;0.65;;;;;;;8.30;86.51;102903.91;4951621;28;20043;-51
2023/02/14 07:43:24;;;;;;;0.68;0.68;;;;;;;8.31;86.14;102907.38;4952486;28;20031;-45
2023/02/14 07:45:49;;;;;;;1.13;1.13;;;;;;;8.33;86.41;102900.66;4938740;29;20457;-45
2023/02/14 07:48:14;;;;;;;0.68;0.68;;;;;;;8.18;85.58;102900.75;4952038;28;20390;-51
2023/02/14 07:50:40;;;;;;;1.25;1.20;;;;;;;8.04;86.86;102889.88;4951563;28;20517;-45
2023/02/14 07:53:09;;;;;;;0.40;0.40;;;;;;;8.21;86.62;102887.56;4945326;28;20027;-54
2023/02/14 07:55:34;;;;;;;0.60;0.60;;;;;;;8.32;86.38;102887.50;4947397;28;20043;-49
2023/02/14 07:58:00;;;;;;;0.30;0.30;;;;;;;8.37;86.54;102890.94;4949456;29;20039;-47
2023/02/14 08:00:26;;;;;;;0.55;0.55;;;;;;;8.51;85.88;102893.75;4948696;28;20023;-50
2023/02/14 08:02:51;;;;;;;0.28;0.28;;;;;;;8.50;85.38;102890.25;4948339;28;20060;-46
2023/02/14 08:05:17;;;;;;;0.47;0.47;;;;;;;8.45;85.69;102894.88;4933862;29;20147;-50
2023/02/14 08:07:45;;;;;;;0.95;0.95;;;;;;;8.49;85.47;102895.91;4951343;28;20639;-51
2023/02/14 08:10:11;;;;;;;0.32;0.32;;;;;;;8.53;85.68;102897.75;4932239;29;20045;-48
2023/02/14 08:18:04;;;;;;;0.65;0.65;;;;;;;8.59;85.27;102903.88;4946985;28;20050;-46
2023/02/14 08:20:30;;;;;;;0.60;0.60;;;;;;;8.67;85.93;102895.19;4945069;28;20027;-51
2023/02/14 08:22:55;;;;;;;0.20;0.20;;;;;;;8.74;85.87;102893.75;4950255;28;20043;-47
2023/02/14 08:25:21;;;;;;;0.60;0.57;;;;;;;8.90;85.42;102894.38;4951047;29;20036;-44
2023/02/14 08:27:46;;;;;;;0.82;0.77;;;;;;;9.02;85.32;102887.47;4951061;29;20039;-46
2023/02/14 08:30:12;;;;;;;0.20;0.20;;;;;;;9.16;85.14;102889.44;4944515;28;20055;-51
2023/02/14 08:32:38;;;;;;;0.52;0.52;;;;;;;9.35;84.35;102888.38;4942946;28;20043;-44
2023/02/14 08:35:03;;;;;;;0.30;0.30;;;;;;;9.46;83.21;102889.84;4934046;29;20023;-45
2023/02/14 08:37:29;;;;;;;0.28;0.28;;;;;;;9.61;83.11;102891.50;4944868;28;20043;-47
2023/02/14 08:39:54;;;;;;;0.30;0.30;;;;;;;9.79;82.77;102890.69;4939464;28;20035;-48
2023/02/14 08:42:20;;;;;;;0.10;0.10;;;;;;;10.01;82.25;102896.22;4945676;28;20383;-51
2023/02/14 08:44:45;;;;;;;0.40;0.40;;;;;;;10.22;80.94;102894.00;4947295;28;20049;-50
2023/02/14 08:47:10;;;;;;;0.10;0.10;;;;;;;10.26;80.11;102889.63;4947625;28;20483;-50
2023/02/14 08:49:36;;;;;;;0.75;0.75;;;;;;;10.28;79.22;102887.44;4948428;28;20054;-43
2023/02/14 08:52:01;;;;;;;0.40;0.40;;;;;;;10.47;79.05;102888.94;4948042;28;20109;-51
2023/02/14 08:54:27;;;;;;;0.30;0.30;;;;;;;10.59;77.62;102891.94;4940518;29;20095;-52
2023/02/14 08:56:52;;;;;;;0.30;0.30;;;;;;;10.66;77.24;102894.25;4948901;28;20568;-46
2023/02/14 08:59:18;;;;;;;0.50;0.50;;;;;;;10.86;76.29;102900.03;4948611;28;20141;-50
2023/02/14 09:01:43;;;;;;;0.55;0.52;;;;;;;10.99;75.50;102903.00;4943580;28;20035;-50
2023/02/14 09:04:09;;;;;;;0.30;0.30;;;;;;;10.86;75.14;102899.22;4953354;28;20110;-48
2023/02/14 09:06:37;;;;;;;0.35;0.35;;;;;;;10.76;76.48;102908.31;4951598;28;20043;-48
2023/02/14 09:09:03;;;;;;;0.30;0.30;;;;;;;10.83;76.93;102899.81;4953918;28;20035;-46
2023/02/14 09:11:28;;;;;;;0.80;0.52;;;;;;;10.91;76.05;102893.75;4956905;28;20086;-47
2023/02/14 09:13:53;;;;;;;0.17;0.17;;;;;;;11.02;74.85;102897.00;4953301;28;20057;-53
2023/02/14 09:16:20;;;;;;;0.32;0.32;;;;;;;11.25;73.83;102890.56;4949587;29;20050;-52
2023/02/14 09:18:47;;;;;;;0.10;0.10;;;;;;;11.28;73.85;102895.38;4948165;28;20669;-48
2023/02/14 09:21:18;;;;;;;0.40;0.40;;;;;;;11.27;73.73;102891.06;4949849;29;20039;-50
2023/02/14 09:23:44;;;;;;;0.00;0.00;;;;;;;11.33;73.36;102898.75;4949534;28;20039;-47
2023/02/14 09:26:11;;;;;;;0.57;0.50;;;;;;;11.54;73.63;102888.28;4948302;28;20023;-48
2023/02/14 09:28:38;;;;;;;0.40;0.40;;;;;;;11.94;72.40;102892.75;4946362;28;20733;-54
2023/02/14 09:31:29;;;;;;;0.63;0.55;;;;;;;12.07;71.25;102891.88;4944747;28;20034;-50
2023/02/14 09:36:39;;;;;;;0.10;0.10;;;;;;;11.93;69.45;102888.44;4946512;28;19965;-52
2023/02/14 09:39:04;;;;;;;0.20;0.20;;;;;;;12.00;69.67;102880.69;4934431;28;20024;-48
2023/02/14 09:41:37;;;;;;;0.30;0.30;;;;;;;12.13;69.15;102882.53;4950211;29;20023;-48
2023/02/14 09:44:09;;;;;;;0.10;0.10;;;;;;;11.96;68.70;102876.22;4949888;28;20039;-50
2023/02/14 09:46:42;;;;;;;0.15;0.15;;;;;;;11.90;69.93;102885.56;4951102;28;20035;-52
2023/02/14 09:49:13;;;;;;;0.20;0.20;;;;;;;12.08;69.59;102887.25;4943169;28;20041;-51
2023/02/14 09:51:45;;;;;;;0.20;0.20;;;;;;;12.21;69.21;102875.56;4948370;28;20045;-51
2023/02/14 09:54:13;;;;;;;0.10;0.10;;;;;;;12.47;68.34;102869.16;4938085;28;20062;-50
2023/02/14 09:57:01;;;;;;;0.20;0.20;;;;;;;12.51;67.68;102864.72;4950406;28;20927;-49
2023/02/14 09:59:34;;;;;;;0.47;0.47;;;;;;;12.44;66.98;102869.00;4952451;28;20449;-49
2023/02/14 10:02:17;;;;;;;0.08;0.08;;;;;;;12.57;68.38;102868.06;4948791;28;20149;-52
2023/02/14 10:05:05;;;;;;;0.00;0.00;;;;;;;12.18;68.33;102868.06;4950342;28;20122;-55
2023/02/14 10:07:51;;;;;;;1.38;0.82;;;;;;;12.21;68.86;102865.56;4942463;28;20035;-51
2023/02/14 10:10:20;;;;;;;0.10;0.10;;;;;;;12.25;69.33;102854.94;4945544;28;20038;-51
2023/02/14 10:12:51;;;;;;;1.15;0.80;;;;;;;12.66;68.48;102863.50;4939343;28;20031;-50
2023/02/14 10:15:27;;;;;;;0.30;0.30;;;;;;;12.89;66.75;102872.31;4945233;29;20059;-49
2023/02/14 10:18:25;;;;;;;0.50;0.50;;;;;;;12.17;67.86;102871.88;4941667;28;20114;-52
2023/02/14 10:20:55;;;;;;;0.43;0.40;;;;;;;12.44;68.08;102874.41;4931296;28;20082;-51
2023/02/14 10:23:39;;;;;;;0.43;0.30;;;;;;;12.49;67.24;102869.66;4947100;28;20039;-49
2023/02/14 10:26:15;;;;;;;0.15;0.15;;;;;;;11.73;70.29;102875.41;4944099;28;20036;-51
2023/02/14 10:28:48;;;;;;;0.20;0.20;;;;;;;12.05;69.91;102868.97;4947777;28;20130;-50
2023/02/14 10:31:22;;;;;;;0.93;0.38;;;;;;;12.28;70.56;102857.00;4947101;28;20043;-52
2023/02/14 10:34:16;;;;;;;0.10;0.10;;;;;;;12.52;69.17;102860.91;4942870;28;20414;-53
2023/02/14 10:36:50;;;;;;;0.00;0.00;;;;;;;12.67;68.10;102859.69;4891413;28;20066;-51
2023/02/14 10:39:37;;;;;;;0.32;0.32;;;;;;;12.51;68.51;102856.63;4943129;28;22137;-49
2023/02/14 10:42:24;;;;;;;0.10;0.10;;;;;;;12.68;68.34;102847.75;4925229;28;20054;-53
2023/02/14 10:45:05;;;;;;;0.20;0.20;;;;;;;12.88;68.07;102846.38;4945448;28;20050;-51
2023/02/14 10:47:53;;;;;;;0.10;0.10;;;;;;;12.93;67.27;102846.22;4944830;28;20114;-49
2023/02/14 10:50:36;;;;;;;1.25;0.17;;;;;;;12.79;66.96;102832.03;4947011;28;20047;-52
2023/02/14 10:53:15;;;;;;;0.40;0.30;;;;;;;12.68;68.74;102851.25;4948748;28;20074;-49
2023/02/14 10:56:02;;;;;;;0.52;0.52;;;;;;;12.96;67.60;102837.47;4948233;28;20039;-48
2023/02/14 10:58:33;;;;;;;0.47;0.47;;;;;;;13.14;66.43;102837.19;4948580;28;20195;-49
2023/02/14 11:01:11;;;;;;;0.57;0.57;;;;;;;13.08;67.19;102846.59;4947358;28;20039;-48
2023/02/14 11:03:40;;;;;;;0.00;0.00;;;;;;;13.26;65.56;102847.38;4949365;28;20023;-49
2023/02/14 11:06:07;;;;;;;0.32;0.32;;;;;;;13.18;65.51;102848.97;4946921;28;20019;-52
2023/02/14 11:08:35;;;;;;;0.50;0.50;;;;;;;12.65;67.44;102849.19;4944510;28;20122;-47
2023/02/14 11:11:15;;;;;;;1.65;0.88;;;;;;;13.05;67.10;102846.41;4945473;28;20532;-50
2023/02/14 11:13:41;;;;;;;0.05;0.05;;;;;;;13.06;67.55;102845.31;4948362;28;20035;-52
2023/02/14 11:16:10;;;;;;;0.43;0.30;;;;;;;12.90;67.11;102849.56;4949448;28;20046;-52
2023/02/14 11:18:38;;;;;;;0.40;0.40;;;;;;;12.90;66.77;102831.41;4947637;28;20035;-51
2023/02/14 11:21:13;;;;;;;0.10;0.10;;;;;;;13.00;67.84;102833.03;4947848;28;20043;-50
2023/02/14 11:23:41;;;;;;;0.28;0.28;;;;;;;12.87;67.20;102826.66;4943768;28;20086;-53
2023/02/14 11:26:30;;;;;;;0.70;0.45;;;;;;;12.63;67.97;102831.69;4945507;28;20114;-50
2023/02/14 11:29:11;;;;;;;0.22;0.22;;;;;;;12.72;68.55;102826.31;4948475;28;20170;-49
2023/02/14 11:31:39;;;;;;;0.30;0.30;;;;;;;12.59;68.69;102822.63;4942920;28;20063;-49
2023/02/14 11:34:19;;;;;;;0.30;0.22;;;;;;;12.31;69.37;102824.75;4944829;28;20035;-52
2023/02/14 11:36:45;;;;;;;0.17;0.17;;;;;;;12.43;70.93;102819.53;4944651;28;20035;-48
2023/02/14 11:39:30;;;;;;;0.52;0.45;;;;;;;12.61;70.70;102817.69;4946931;28;20489;-49
2023/02/14 11:41:59;;;;;;;0.00;0.00;;;;;;;12.57;69.69;102803.22;4939877;28;20090;-48
2023/02/14 11:44:27;;;;;;;0.55;0.55;;;;;;;12.60;69.09;102789.09;4950072;28;20045;-48
2023/02/14 11:46:55;;;;;;;0.28;0.28;;;;;;;12.58;71.03;102789.38;4949898;28;20019;-50
2023/02/14 11:49:27;;;;;;;5.38;2.50;;;;;;;12.53;70.61;102786.03;4945538;28;20754;-52
2023/02/14 11:51:53;;;;;;;;;;;;;;;12.63;70.99;102785.72;4931751;29;20191;-51
2023/02/14 11:54:29;;;;;;;0.47;0.47;;;;;;;12.94;69.79;102782.91;4939647;28;20002;-50
2023/02/14 11:57:02;;;;;;;0.57;0.57;;;;;;;13.01;69.70;102775.91;4936125;28;20054;-51
2023/02/14 11:59:32;;;;;;;0.00;0.00;;;;;;;13.13;68.94;102778.78;4944545;28;20588;-48
2023/02/14 12:02:03;;;;;;;0.15;0.15;;;;;;;13.04;69.01;102764.47;4941491;28;20703;-47
2023/02/14 12:04:43;;;;;;;0.10;0.10;;;;;;;12.90;69.54;102763.81;4948389;28;20175;-50